Bascharage, Luxembourg
Current Conditions -  °F | °C
As of 5:20 PM on Monday 24 Nov 2014 (Local Time) from ELLX Reporting Station
Broken Clouds Broken Clouds  
Wind Chill: 42°   Ceiling: 2200
Heat Index: 46°   Visibility: 6mi
Dew Point: 41°   Wind: 9mph
Humidity: 81%   Direction: 50°NE
Pressure: 30.24"   Gusts: NA
Location:  49.57°N, 5.91°E
Report Text: ELLX 241620Z 05008KT 9999 BKN022 08/05 Q1024 NOSIG
Loading
Personal Weather Stations






























Interactive Weather Map New forecast layout! Learn more

10-Day Weather Forecast

Advertisements
Track Severe Weather on mobile